Time;durP1;ratioP1;P1;durP2;ratioP2;P2;SDS_P1;SDS_P2;PMS_P1;PMS_P2;Temp;Humidity;BMP_temperature;BMP_pressure;BME280_temperature;BME280_humidity;BME280_pressure;Samples;Min_cycle;Max_cycle;Signal;HPM_P1;HPM_P2
2024/02/27 00:00:50;;;;;;;3.83;1.27;;;12.20;72.20;;;;;;2587643;53;20951;-66
2024/02/27 00:03:16;;;;;;;1.75;0.77;;;12.20;72.20;;;;;;2341538;53;21275;-66
2024/02/27 00:05:42;;;;;;;2.15;0.98;;;12.20;72.30;;;;;;2341434;53;21882;-65
2024/02/27 00:08:09;;;;;;;2.35;0.90;;;12.20;72.30;;;;;;2341475;54;21244;-66
2024/02/27 00:10:35;;;;;;;2.30;1.00;;;12.20;72.30;;;;;;2586452;53;20963;-66
2024/02/27 00:13:02;;;;;;;3.12;0.80;;;12.10;72.30;;;;;;2340586;54;21826;-65
2024/02/27 00:15:28;;;;;;;2.40;1.05;;;12.20;72.30;;;;;;2342185;54;20924;-66
2024/02/27 00:17:54;;;;;;;5.10;0.93;;;12.20;72.30;;;;;;2592117;52;20946;-66
2024/02/27 00:20:21;;;;;;;3.80;1.27;;;12.20;72.30;;;;;;2357064;53;21487;-66
2024/02/27 00:22:47;;;;;;;2.90;0.80;;;12.20;72.30;;;;;;2369209;53;20966;-65
2024/02/27 00:25:14;;;;;;;2.37;0.93;;;12.20;72.20;;;;;;2369334;53;21637;-66
2024/02/27 00:27:41;;;;;;;2.78;1.05;;;12.20;72.20;;;;;;2369096;53;20957;-66
2024/02/27 00:30:08;;;;;;;2.22;0.80;;;12.20;72.20;;;;;;2368389;53;20993;-66
2024/02/27 00:32:35;;;;;;;2.72;0.75;;;12.20;72.20;;;;;;2369431;53;20926;-66
2024/02/27 00:35:02;;;;;;;2.35;0.90;;;12.20;72.10;;;;;;2368787;53;20985;-66
2024/02/27 00:37:28;;;;;;;1.87;0.80;;;12.20;72.00;;;;;;2369461;53;21097;-65
2024/02/27 00:39:57;;;;;;;2.05;0.57;;;12.20;72.00;;;;;;2593177;52;20962;-65
2024/02/27 00:42:23;;;;;;;1.98;0.73;;;12.10;71.80;;;;;;2621681;52;21014;-66
2024/02/27 00:44:50;;;;;;;4.22;0.80;;;12.10;71.90;;;;;;2621278;52;20954;-65
2024/02/27 00:47:16;;;;;;;2.95;0.98;;;12.10;71.80;;;;;;2369209;53;21020;-65
2024/02/27 00:49:43;;;;;;;1.70;0.70;;;12.10;71.80;;;;;;2621669;52;21301;-65
2024/02/27 00:52:10;;;;;;;1.62;0.70;;;12.10;71.80;;;;;;2621298;52;21489;-66
2024/02/27 00:54:36;;;;;;;2.40;0.98;;;12.00;71.70;;;;;;2369419;53;21365;-66
2024/02/27 00:57:03;;;;;;;2.20;0.93;;;12.00;71.60;;;;;;2620947;52;21273;-65
2024/02/27 00:59:30;;;;;;;2.35;0.90;;;12.00;71.70;;;;;;2369228;53;20946;-65
2024/02/27 01:01:57;;;;;;;2.47;1.00;;;12.00;71.80;;;;;;2621092;52;21057;-66
2024/02/27 01:04:23;;;;;;;2.53;0.90;;;12.00;71.80;;;;;;2369246;53;21041;-65
2024/02/27 01:06:49;;;;;;;2.87;1.37;;;11.90;71.70;;;;;;2369388;53;20962;-66
2024/02/27 01:09:16;;;;;;;1.87;0.85;;;12.00;71.90;;;;;;2621387;52;20933;-66
2024/02/27 01:11:42;;;;;;;2.22;0.90;;;11.90;71.80;;;;;;2369450;53;20933;-65
2024/02/27 01:14:09;;;;;;;2.65;1.10;;;11.90;71.80;;;;;;2621193;52;20934;-65
2024/02/27 01:16:37;;;;;;;3.12;1.17;;;11.90;71.80;;;;;;2369397;53;20943;-65
2024/02/27 01:19:04;;;;;;;1.87;0.80;;;11.90;71.80;;;;;;2361591;53;20939;-65
2024/02/27 01:21:30;;;;;;;4.25;0.98;;;11.80;71.80;;;;;;2355176;53;21055;-65
2024/02/27 01:23:56;;;;;;;2.50;1.08;;;11.80;71.80;;;;;;2350426;53;20934;-65
2024/02/27 01:26:23;;;;;;;2.15;0.90;;;11.80;71.80;;;;;;2369387;53;20985;-66
2024/02/27 01:28:52;;;;;;;2.72;1.10;;;11.80;71.80;;;;;;2368643;53;20965;-65
2024/02/27 01:31:18;;;;;;;2.67;0.70;;;11.80;71.70;;;;;;2621963;52;21784;-66
2024/02/27 01:33:45;;;;;;;1.90;0.80;;;11.80;71.70;;;;;;2368938;53;20938;-65
2024/02/27 01:36:12;;;;;;;1.55;0.70;;;11.80;71.70;;;;;;2368785;53;20938;-66
2024/02/27 01:38:38;;;;;;;2.05;0.90;;;11.70;71.50;;;;;;2621453;52;20977;-66
2024/02/27 01:41:05;;;;;;;1.67;0.80;;;11.70;71.40;;;;;;2368637;53;21415;-65
2024/02/27 01:43:31;;;;;;;3.35;1.50;;;11.70;71.10;;;;;;2365240;53;20942;-65
2024/02/27 01:46:11;;;;;;;4.15;1.60;;;11.60;71.00;;;;;;2367641;53;20926;-66
2024/02/27 01:48:37;;;;;;;3.25;1.42;;;11.60;70.80;;;;;;2369202;53;20946;-66
2024/02/27 01:51:03;;;;;;;2.87;1.35;;;11.60;71.10;;;;;;2368357;53;20938;-65
2024/02/27 01:53:30;;;;;;;2.83;1.20;;;11.60;71.10;;;;;;2369190;53;21899;-65
2024/02/27 01:55:56;;;;;;;2.40;1.20;;;11.50;71.10;;;;;;2620951;52;21120;-65
2024/02/27 01:58:22;;;;;;;2.25;1.05;;;11.50;71.10;;;;;;2368523;53;21293;-65
2024/02/27 02:00:49;;;;;;;3.03;1.10;;;11.40;70.90;;;;;;2621441;52;20958;-66
2024/02/27 02:03:15;;;;;;;2.87;0.90;;;11.40;70.80;;;;;;2368280;53;21500;-66
2024/02/27 02:05:42;;;;;;;2.00;0.88;;;11.40;70.80;;;;;;2368387;53;21265;-65
2024/02/27 02:08:08;;;;;;;2.22;0.98;;;11.30;70.70;;;;;;2368103;53;21337;-65
2024/02/27 02:10:34;;;;;;;2.50;1.10;;;11.30;70.70;;;;;;2620770;52;20970;-66
2024/02/27 02:13:01;;;;;;;3.05;1.50;;;11.20;70.70;;;;;;2340437;53;21174;-66
2024/02/27 02:15:28;;;;;;;2.72;1.20;;;11.40;70.90;;;;;;2586826;53;20980;-66
2024/02/27 02:17:54;;;;;;;2.78;1.10;;;11.20;70.80;;;;;;2586214;53;21048;-65
2024/02/27 02:20:21;;;;;;;2.78;1.17;;;11.10;70.80;;;;;;2340493;53;21489;-65
2024/02/27 02:22:48;;;;;;;2.92;1.35;;;11.10;71.50;;;;;;2586647;53;21016;-65
2024/02/27 02:25:16;;;;;;;2.58;1.20;;;11.10;71.00;;;;;;2340736;53;20944;-66
2024/02/27 02:27:45;;;;;;;3.15;1.62;;;11.10;71.10;;;;;;2586610;53;21702;-66
2024/02/27 02:30:12;;;;;;;2.60;1.30;;;11.00;71.10;;;;;;2564860;53;21044;-65
2024/02/27 02:32:48;;;;;;;3.97;1.80;;;11.00;71.30;;;;;;2328641;53;21267;-65
2024/02/27 02:35:15;;;;;;;3.55;1.58;;;11.00;71.10;;;;;;2340282;53;21209;-65
2024/02/27 02:37:51;;;;;;;3.35;1.85;;;11.00;71.50;;;;;;2586877;53;20959;-65
2024/02/27 02:40:18;;;;;;;4.60;2.35;;;11.00;71.60;;;;;;2586330;53;20985;-66
2024/02/27 02:42:44;;;;;;;5.70;2.25;;;11.00;71.70;;;;;;2340754;53;20964;-66
2024/02/27 02:45:11;;;;;;;5.10;2.50;;;11.00;71.90;;;;;;2340644;53;21493;-66
2024/02/27 02:47:37;;;;;;;3.97;2.12;;;11.00;72.00;;;;;;2340960;53;21028;-65
2024/02/27 02:50:04;;;;;;;3.53;2.08;;;11.00;72.20;;;;;;2343463;53;21019;-65
2024/02/27 02:52:31;;;;;;;5.00;2.35;;;11.00;72.30;;;;;;2338553;53;20931;-65
2024/02/27 02:54:58;;;;;;;3.62;1.95;;;11.00;72.40;;;;;;2367938;53;21262;-66
2024/02/27 02:57:25;;;;;;;4.53;2.33;;;11.00;72.40;;;;;;2620303;52;20942;-65
2024/02/27 02:59:54;;;;;;;3.83;2.22;;;11.00;72.50;;;;;;2608409;52;21505;-66
2024/02/27 03:02:20;;;;;;;3.62;1.83;;;11.10;72.60;;;;;;2351400;53;21002;-65
2024/02/27 03:04:47;;;;;;;3.62;1.73;;;11.10;72.60;;;;;;2368666;53;20946;-65
2024/02/27 03:07:13;;;;;;;4.72;2.00;;;11.10;72.60;;;;;;2619413;52;20911;-65
2024/02/27 03:09:39;;;;;;;4.50;2.20;;;11.10;72.60;;;;;;2368041;53;20955;-66
2024/02/27 03:12:06;;;;;;;3.30;1.85;;;11.10;72.70;;;;;;2368351;53;21058;-64
2024/02/27 03:14:33;;;;;;;4.07;2.12;;;11.10;72.70;;;;;;2368760;53;20953;-66
2024/02/27 03:16:59;;;;;;;5.07;2.35;;;11.10;72.70;;;;;;2368052;53;20977;-65
2024/02/27 03:19:26;;;;;;;3.67;2.00;;;11.20;72.80;;;;;;2368256;53;20928;-65
2024/02/27 03:21:56;;;;;;;3.50;1.98;;;11.20;72.80;;;;;;2368054;53;21045;-66
2024/02/27 03:24:25;;;;;;;3.42;2.00;;;11.20;72.80;;;;;;2620044;52;20989;-65
2024/02/27 03:26:51;;;;;;;4.15;2.15;;;11.20;72.60;;;;;;2368439;53;20962;-65
2024/02/27 03:29:19;;;;;;;4.93;2.17;;;11.20;72.80;;;;;;2370899;53;20949;-66
2024/02/27 03:31:46;;;;;;;4.03;2.30;;;11.30;72.80;;;;;;2589354;52;20989;-66
2024/02/27 03:34:12;;;;;;;5.43;2.10;;;11.30;72.80;;;;;;2595907;52;20924;-66
2024/02/27 03:36:39;;;;;;;3.60;2.00;;;11.30;72.80;;;;;;2361571;53;21029;-66
2024/02/27 03:39:06;;;;;;;3.87;1.98;;;11.30;72.80;;;;;;2368635;53;21011;-66
2024/02/27 03:41:32;;;;;;;4.07;2.20;;;11.40;72.90;;;;;;2620129;52;21510;-66
2024/02/27 03:43:58;;;;;;;3.47;2.00;;;11.40;72.90;;;;;;2368118;53;20926;-65
2024/02/27 03:46:25;;;;;;;3.85;1.95;;;11.40;72.90;;;;;;2620324;52;21362;-65
2024/02/27 03:48:51;;;;;;;3.65;1.95;;;11.40;72.90;;;;;;2368204;53;20992;-66
2024/02/27 03:51:18;;;;;;;3.40;1.77;;;11.50;73.00;;;;;;2355837;53;20979;-65
2024/02/27 03:53:44;;;;;;;3.90;2.08;;;11.40;72.90;;;;;;2355872;53;21286;-65
2024/02/27 03:56:11;;;;;;;3.80;1.95;;;11.50;72.90;;;;;;2368060;53;21344;-66
2024/02/27 03:58:38;;;;;;;4.43;1.92;;;11.50;73.00;;;;;;2343847;54;20933;-65
2024/02/27 04:01:04;;;;;;;3.78;2.00;;;11.50;73.00;;;;;;2619841;52;21017;-66
2024/02/27 04:03:30;;;;;;;6.32;3.03;;;11.50;73.00;;;;;;2368259;53;20966;-66
2024/02/27 04:05:56;;;;;;;5.18;2.45;;;11.50;72.90;;;;;;2354417;53;21468;-66
2024/02/27 04:08:23;;;;;;;4.25;2.60;;;11.60;73.00;;;;;;2607846;52;20922;-65
2024/02/27 04:10:49;;;;;;;4.43;2.33;;;11.60;73.00;;;;;;2368200;53;20982;-66
2024/02/27 04:13:15;;;;;;;3.80;2.08;;;11.60;72.90;;;;;;2341192;53;20977;-65
2024/02/27 04:15:46;;;;;;;4.60;2.20;;;11.60;72.90;;;;;;2351206;54;21029;-65
2024/02/27 04:18:12;;;;;;;3.40;1.67;;;11.60;72.90;;;;;;2368252;53;20962;-66
2024/02/27 04:20:39;;;;;;;3.87;1.98;;;11.60;72.90;;;;;;2368155;53;21034;-65
2024/02/27 04:23:05;;;;;;;4.43;2.10;;;11.60;72.90;;;;;;2368267;53;21331;-66
2024/02/27 04:25:33;;;;;;;3.87;2.10;;;11.70;73.00;;;;;;2367891;53;21046;-65
2024/02/27 04:27:59;;;;;;;4.30;2.10;;;11.70;72.90;;;;;;2620308;52;20943;-65
2024/02/27 04:30:26;;;;;;;3.53;1.92;;;11.70;72.90;;;;;;2368481;53;20938;-65
2024/02/27 04:32:53;;;;;;;4.40;2.50;;;11.70;72.70;;;;;;2368506;53;21265;-66
2024/02/27 04:35:19;;;;;;;4.30;2.25;;;11.70;72.70;;;;;;2368439;53;21568;-65
2024/02/27 04:37:45;;;;;;;3.35;1.87;;;11.70;72.70;;;;;;2368268;53;20934;-65
2024/02/27 04:40:12;;;;;;;4.10;2.30;;;11.70;72.70;;;;;;2613392;52;21055;-65
2024/02/27 04:42:56;;;;;;;3.45;1.90;;;11.70;72.60;;;;;;2346941;54;20978;-65
2024/02/27 04:45:23;;;;;;;3.95;2.17;;;11.70;72.00;;;;;;2366919;53;21017;-65
2024/02/27 04:47:49;;;;;;;4.05;2.20;;;11.70;72.60;;;;;;2368359;53;21388;-65
2024/02/27 04:50:15;;;;;;;3.90;2.10;;;11.70;72.60;;;;;;2603540;52;20984;-65
2024/02/27 04:52:42;;;;;;;4.90;2.20;;;11.80;72.70;;;;;;2354709;53;20974;-65
2024/02/27 04:55:08;;;;;;;3.78;2.00;;;11.70;72.70;;;;;;2368313;53;21014;-66
2024/02/27 04:57:34;;;;;;;3.83;1.95;;;11.70;72.70;;;;;;2367819;53;21880;-65
2024/02/27 05:00:01;;;;;;;4.05;2.12;;;11.70;72.70;;;;;;2367313;53;21412;-64
2024/02/27 05:02:29;;;;;;;4.80;2.12;;;11.80;72.90;;;;;;2619869;52;21447;-65
2024/02/27 05:04:55;;;;;;;4.72;2.80;;;11.80;72.90;;;;;;2620438;52;20974;-65
2024/02/27 05:07:21;;;;;;;4.35;2.55;;;11.80;72.90;;;;;;2619980;52;20970;-66
2024/02/27 05:09:50;;;;;;;4.07;2.15;;;11.80;72.90;;;;;;2368050;53;20938;-66
2024/02/27 05:12:17;;;;;;;3.70;2.17;;;11.80;72.80;;;;;;2368114;53;20954;-65
2024/02/27 05:14:43;;;;;;;4.03;2.17;;;11.80;72.80;;;;;;2620364;52;20958;-65
2024/02/27 05:17:09;;;;;;;3.80;2.10;;;11.80;72.80;;;;;;2368157;53;20965;-65
2024/02/27 05:19:36;;;;;;;3.97;2.35;;;11.80;72.70;;;;;;2368362;53;21300;-66
2024/02/27 05:22:03;;;;;;;4.72;2.50;;;11.90;72.80;;;;;;2368026;53;21684;-66
2024/02/27 05:24:39;;;;;;;;;;;11.80;72.60;;;;;;2371374;53;20954;-65
2024/02/27 05:27:27;;;;;;;4.32;2.60;;;11.80;71.40;;;;;;2616583;52;20382;-66
2024/02/27 05:29:53;;;;;;;6.03;2.85;;;11.80;72.40;;;;;;2368037;53;21013;-65
2024/02/27 05:32:20;;;;;;;7.65;2.92;;;11.80;72.40;;;;;;2618933;52;20945;-66
2024/02/27 05:34:46;;;;;;;5.00;2.83;;;11.80;72.40;;;;;;2368289;53;20989;-66
2024/02/27 05:37:12;;;;;;;4.87;2.78;;;11.80;72.40;;;;;;2368100;53;21798;-66
2024/02/27 05:39:41;;;;;;;4.93;2.70;;;11.80;72.40;;;;;;2368003;53;21073;-65
2024/02/27 05:42:07;;;;;;;4.72;2.35;;;11.80;72.40;;;;;;2368080;53;20950;-66
2024/02/27 05:44:34;;;;;;;5.50;3.08;;;11.70;72.30;;;;;;2587434;52;21517;-65
2024/02/27 05:47:00;;;;;;;7.12;2.97;;;11.70;72.30;;;;;;2363920;53;21095;-65
2024/02/27 05:49:26;;;;;;;5.68;3.45;;;11.70;72.40;;;;;;2350163;53;21792;-65
2024/02/27 05:51:52;;;;;;;5.75;3.40;;;11.70;72.40;;;;;;2368293;53;21002;-65
2024/02/27 05:54:19;;;;;;;5.35;3.50;;;11.70;72.40;;;;;;2368125;53;21343;-65
2024/02/27 05:56:47;;;;;;;7.55;4.43;;;11.70;72.50;;;;;;2366004;54;21776;-66
2024/02/27 05:59:14;;;;;;;6.82;4.55;;;11.70;72.50;;;;;;2346588;53;21018;-66
2024/02/27 06:01:41;;;;;;;7.65;4.60;;;11.70;72.40;;;;;;2368174;53;21530;-66
2024/02/27 06:04:07;;;;;;;7.50;4.65;;;11.70;72.40;;;;;;2368404;53;20966;-65
2024/02/27 06:06:34;;;;;;;8.02;4.78;;;11.70;72.30;;;;;;2368646;53;20942;-66
2024/02/27 06:09:00;;;;;;;8.52;5.35;;;11.70;72.30;;;;;;2350177;53;21016;-65
2024/02/27 06:11:26;;;;;;;7.28;4.62;;;11.70;72.30;;;;;;2614130;52;21400;-66
2024/02/27 06:13:53;;;;;;;8.38;5.40;;;11.60;72.10;;;;;;2620830;52;20955;-66
2024/02/27 06:16:20;;;;;;;8.85;5.25;;;11.70;72.10;;;;;;2370969;53;20967;-65
2024/02/27 06:18:48;;;;;;;8.05;5.10;;;11.60;71.90;;;;;;2605196;52;20949;-66
2024/02/27 06:24:00;;;;;;;7.80;5.00;;;11.60;71.90;;;;;;2615114;52;20950;-65
2024/02/27 06:26:27;;;;;;;8.20;4.97;;;11.60;72.00;;;;;;2619246;52;21658;-66
2024/02/27 06:28:53;;;;;;;9.57;5.22;;;11.50;71.90;;;;;;2368273;53;20946;-65
2024/02/27 06:31:20;;;;;;;8.93;5.35;;;11.50;71.90;;;;;;2620739;52;21491;-65
2024/02/27 06:33:46;;;;;;;8.55;5.55;;;11.50;71.90;;;;;;2614409;52;20982;-65
2024/02/27 06:36:12;;;;;;;9.40;5.70;;;11.50;71.90;;;;;;2368223;53;21279;-66
2024/02/27 06:38:39;;;;;;;10.65;6.75;;;11.50;71.90;;;;;;2619559;52;20998;-65
2024/02/27 06:41:05;;;;;;;9.85;5.68;;;11.40;71.80;;;;;;2367626;53;21515;-66
2024/02/27 06:43:32;;;;;;;8.35;5.82;;;11.40;71.90;;;;;;2620067;52;20931;-66
2024/02/27 06:46:00;;;;;;;10.75;6.18;;;11.40;71.90;;;;;;2368678;53;20982;-66
2024/02/27 06:48:28;;;;;;;10.45;6.85;;;11.40;71.90;;;;;;2619134;52;20915;-66
2024/02/27 06:50:55;;;;;;;9.38;5.87;;;11.40;71.90;;;;;;2367765;53;21510;-65
2024/02/27 06:53:23;;;;;;;11.18;6.45;;;11.40;71.90;;;;;;2619757;52;20997;-66
2024/02/27 06:55:49;;;;;;;9.93;5.97;;;11.40;72.00;;;;;;2619862;52;20965;-65
2024/02/27 06:58:16;;;;;;;10.27;6.30;;;11.30;72.00;;;;;;2620285;52;20946;-66
2024/02/27 07:00:42;;;;;;;8.98;5.65;;;11.40;72.20;;;;;;2367486;53;21728;-65
2024/02/27 07:03:10;;;;;;;9.15;5.53;;;11.30;72.30;;;;;;2368435;53;21534;-66
2024/02/27 07:05:36;;;;;;;9.25;6.00;;;11.30;72.40;;;;;;2362986;53;20963;-65
2024/02/27 07:08:05;;;;;;;11.23;6.12;;;11.40;72.50;;;;;;2350319;54;20947;-66
2024/02/27 07:10:32;;;;;;;8.32;5.32;;;11.40;72.60;;;;;;2367376;53;21325;-64
2024/02/27 07:12:59;;;;;;;10.40;6.37;;;11.40;72.50;;;;;;2368199;53;20938;-65
2024/02/27 07:15:25;;;;;;;10.07;6.68;;;11.40;72.50;;;;;;2368328;53;21415;-66
2024/02/27 07:17:52;;;;;;;11.70;7.53;;;11.40;72.50;;;;;;2620024;52;20946;-65
2024/02/27 07:20:18;;;;;;;11.63;7.45;;;11.40;72.40;;;;;;2620569;52;21507;-66
2024/02/27 07:22:48;;;;;;;12.10;8.30;;;11.40;72.30;;;;;;2367389;53;21277;-65
2024/02/27 07:25:14;;;;;;;12.77;8.23;;;11.40;72.20;;;;;;2368230;53;21611;-66
2024/02/27 07:27:41;;;;;;;13.70;9.05;;;11.40;72.20;;;;;;2367783;53;21770;-66
2024/02/27 07:30:07;;;;;;;16.48;9.35;;;11.40;72.10;;;;;;2620253;52;20921;-66
2024/02/27 07:32:34;;;;;;;14.27;8.77;;;11.40;72.10;;;;;;2367462;53;20922;-66
2024/02/27 07:35:00;;;;;;;13.68;9.10;;;11.40;72.20;;;;;;2368051;53;21053;-65
2024/02/27 07:37:26;;;;;;;15.48;10.05;;;11.40;72.20;;;;;;2368551;53;21487;-65
2024/02/27 07:39:52;;;;;;;15.20;9.77;;;11.40;72.30;;;;;;2368158;53;20936;-66
2024/02/27 07:42:19;;;;;;;16.90;9.90;;;11.30;72.20;;;;;;2619071;52;20998;-65
2024/02/27 07:44:46;;;;;;;18.10;10.77;;;11.30;72.20;;;;;;2368174;53;21022;-66
2024/02/27 07:47:12;;;;;;;16.58;10.90;;;11.30;72.20;;;;;;2367296;53;20952;-65
2024/02/27 07:49:44;;;;;;;16.95;11.12;;;11.30;72.20;;;;;;2367051;53;21427;-66
2024/02/27 07:52:10;;;;;;;17.20;10.57;;;11.30;72.00;;;;;;2620672;52;20926;-66
2024/02/27 07:54:36;;;;;;;18.10;11.45;;;11.30;72.20;;;;;;2368528;53;20914;-66
2024/02/27 07:57:03;;;;;;;19.30;12.50;;;11.30;72.30;;;;;;2367869;53;21194;-65
2024/02/27 07:59:30;;;;;;;20.00;12.27;;;11.30;72.40;;;;;;2368903;53;20981;-66
2024/02/27 08:01:56;;;;;;;21.08;13.02;;;11.30;72.50;;;;;;2367813;53;20927;-65
2024/02/27 08:04:22;;;;;;;17.85;11.82;;;11.30;72.60;;;;;;2620027;52;21233;-66
2024/02/27 08:06:49;;;;;;;20.95;12.05;;;11.30;72.70;;;;;;2619710;52;20954;-65
2024/02/27 08:09:16;;;;;;;17.58;11.75;;;11.30;72.80;;;;;;2368143;53;21021;-66
2024/02/27 08:11:42;;;;;;;22.77;14.00;;;11.30;72.80;;;;;;2368059;53;21944;-66
2024/02/27 08:14:08;;;;;;;22.87;13.00;;;11.40;72.90;;;;;;2368195;53;21499;-66
2024/02/27 08:16:35;;;;;;;19.20;12.57;;;11.40;72.90;;;;;;2356824;53;21019;-65
2024/02/27 08:19:04;;;;;;;22.67;13.82;;;11.40;72.90;;;;;;2604087;52;20902;-65
2024/02/27 08:21:32;;;;;;;21.83;13.50;;;11.40;72.90;;;;;;2619979;52;21314;-65
2024/02/27 08:24:03;;;;;;;18.58;12.48;;;11.40;72.90;;;;;;2368027;53;20954;-65
2024/02/27 08:26:31;;;;;;;21.23;13.02;;;11.40;72.90;;;;;;2367935;53;20950;-65
2024/02/27 08:28:57;;;;;;;18.45;11.68;;;11.40;73.00;;;;;;2367282;53;21439;-66
2024/02/27 08:31:23;;;;;;;20.00;12.15;;;11.40;73.00;;;;;;2368561;53;20950;-66
2024/02/27 08:33:50;;;;;;;17.37;11.68;;;11.50;73.30;;;;;;2367090;53;21593;-66
2024/02/27 08:36:16;;;;;;;18.83;12.02;;;11.50;73.30;;;;;;2368050;53;21693;-66
2024/02/27 08:38:43;;;;;;;17.65;11.20;;;11.50;73.40;;;;;;2619288;52;21014;-65
2024/02/27 08:41:10;;;;;;;18.60;12.32;;;11.60;73.50;;;;;;2368141;53;20954;-65
2024/02/27 08:43:39;;;;;;;16.70;10.63;;;11.60;73.60;;;;;;2619644;52;20958;-66
2024/02/27 08:46:06;;;;;;;17.52;10.10;;;11.60;73.60;;;;;;2620389;52;20946;-67
2024/02/27 08:48:33;;;;;;;20.85;11.48;;;11.70;73.90;;;;;;2340686;53;21603;-66
2024/02/27 08:50:59;;;;;;;16.83;11.70;;;11.70;74.10;;;;;;2340496;53;20948;-66
2024/02/27 08:53:26;;;;;;;17.08;10.90;;;11.80;74.40;;;;;;2340322;53;20964;-66
2024/02/27 08:55:52;;;;;;;14.55;10.02;;;11.90;74.50;;;;;;2341207;53;21077;-66
2024/02/27 08:58:19;;;;;;;19.15;12.55;;;11.90;74.40;;;;;;2340503;53;20953;-65
2024/02/27 09:00:45;;;;;;;17.83;12.00;;;12.00;74.30;;;;;;2341555;53;20952;-66
2024/02/27 09:03:14;;;;;;;18.15;12.05;;;12.00;74.20;;;;;;2338648;53;21031;-66
2024/02/27 09:05:43;;;;;;;18.40;11.23;;;12.10;74.40;;;;;;2340329;53;21240;-66
2024/02/27 09:08:11;;;;;;;16.10;10.73;;;12.20;74.70;;;;;;2341139;53;20957;-65
2024/02/27 09:10:38;;;;;;;18.33;11.15;;;12.20;74.80;;;;;;2339842;53;20997;-66
2024/02/27 09:13:05;;;;;;;19.73;12.82;;;12.30;74.80;;;;;;2328305;53;20999;-66
2024/02/27 09:15:34;;;;;;;19.52;12.68;;;12.30;74.80;;;;;;2340033;53;21513;-65
2024/02/27 09:18:01;;;;;;;18.98;12.40;;;12.40;74.70;;;;;;2340447;53;20988;-66
2024/02/27 09:20:30;;;;;;;18.67;12.93;;;12.50;74.60;;;;;;2340755;53;21460;-66
2024/02/27 09:22:58;;;;;;;19.12;11.57;;;12.50;74.50;;;;;;2339084;53;21019;-66
2024/02/27 09:25:26;;;;;;;18.30;11.48;;;12.60;74.50;;;;;;2587161;53;21038;-66
2024/02/27 09:27:54;;;;;;;17.10;11.50;;;12.60;74.50;;;;;;2586636;53;21381;-66
2024/02/27 09:30:20;;;;;;;16.95;12.00;;;12.70;74.60;;;;;;2586786;53;20996;-65
2024/02/27 09:32:46;;;;;;;18.95;12.63;;;12.70;74.60;;;;;;2344473;53;20953;-66
2024/02/27 09:35:13;;;;;;;17.98;11.88;;;12.80;74.50;;;;;;2337078;53;21905;-66
2024/02/27 09:37:39;;;;;;;17.67;11.32;;;12.80;74.30;;;;;;2341147;53;20933;-66
2024/02/27 09:40:06;;;;;;;16.35;10.70;;;12.80;74.20;;;;;;2340812;53;21019;-65
2024/02/27 09:42:32;;;;;;;16.87;11.63;;;12.90;74.20;;;;;;2585782;53;21287;-66
2024/02/27 09:44:59;;;;;;;13.60;9.43;;;12.90;74.20;;;;;;2586957;53;21016;-66
2024/02/27 09:47:29;;;;;;;15.70;10.45;;;12.90;74.00;;;;;;2340680;53;21004;-65
2024/02/27 09:49:55;;;;;;;14.95;9.32;;;13.00;74.20;;;;;;2339958;53;20929;-65
2024/02/27 09:52:22;;;;;;;14.48;10.38;;;13.00;74.20;;;;;;2340451;53;21213;-66
2024/02/27 09:54:48;;;;;;;17.42;10.43;;;13.00;74.10;;;;;;2585923;53;20948;-66
2024/02/27 09:57:15;;;;;;;14.63;9.90;;;13.10;74.20;;;;;;2340564;53;21418;-65
2024/02/27 09:59:46;;;;;;;15.93;10.73;;;13.10;74.10;;;;;;2586632;53;21036;-66
2024/02/27 10:02:13;;;;;;;16.73;10.57;;;13.10;73.90;;;;;;2341808;53;21040;-66
2024/02/27 10:04:39;;;;;;;14.98;9.63;;;13.10;74.00;;;;;;2567257;53;20929;-65
2024/02/27 10:07:08;;;;;;;16.48;11.05;;;13.20;74.10;;;;;;2343139;53;20933;-66
2024/02/27 10:09:35;;;;;;;15.93;10.27;;;13.20;74.10;;;;;;2361319;53;20946;-66
2024/02/27 10:12:03;;;;;;;13.27;8.50;;;13.30;74.40;;;;;;2368194;53;20946;-66
2024/02/27 10:14:33;;;;;;;12.10;8.23;;;13.30;74.50;;;;;;2357984;53;21015;-66
2024/02/27 10:17:02;;;;;;;14.77;9.98;;;13.30;74.60;;;;;;2610655;52;20945;-66
2024/02/27 10:19:29;;;;;;;15.15;9.65;;;13.40;75.00;;;;;;2368187;53;20966;-65
2024/02/27 10:21:56;;;;;;;14.00;9.50;;;13.40;75.00;;;;;;2367970;53;21029;-66
2024/02/27 10:24:29;;;;;;;12.48;8.68;;;13.50;75.20;;;;;;2368849;53;20926;-66
2024/02/27 10:27:04;;;;;;;13.48;9.52;;;13.60;75.20;;;;;;2620527;52;21017;-66
2024/02/27 10:29:31;;;;;;;12.65;8.55;;;13.70;74.80;;;;;;2369029;53;20977;-66
2024/02/27 10:31:57;;;;;;;15.02;8.80;;;13.70;74.70;;;;;;2619734;52;20942;-66
2024/02/27 10:34:27;;;;;;;15.23;9.07;;;13.80;74.70;;;;;;2369012;53;20938;-67
2024/02/27 10:37:00;;;;;;;14.87;9.50;;;13.80;74.30;;;;;;2611323;52;20998;-65
2024/02/27 10:39:26;;;;;;;14.68;8.93;;;13.80;74.00;;;;;;2353656;53;21419;-66
2024/02/27 10:41:53;;;;;;;10.95;7.35;;;13.90;74.10;;;;;;2366070;53;21037;-67
2024/02/27 10:44:21;;;;;;;12.00;8.02;;;13.90;74.10;;;;;;2351423;53;20922;-66
2024/02/27 10:46:47;;;;;;;10.98;7.25;;;14.00;74.30;;;;;;2620720;52;22069;-66
2024/02/27 10:49:15;;;;;;;11.52;7.72;;;14.00;74.50;;;;;;2368985;53;21261;-66
2024/02/27 10:51:41;;;;;;;11.02;7.65;;;14.00;74.60;;;;;;2350822;53;20896;-66
2024/02/27 10:54:08;;;;;;;13.45;8.73;;;14.10;74.70;;;;;;2367859;53;20962;-66
2024/02/27 10:56:34;;;;;;;14.05;9.32;;;14.20;74.60;;;;;;2348264;54;20963;-65
2024/02/27 10:59:04;;;;;;;13.20;9.35;;;14.20;74.20;;;;;;2619961;52;21711;-66
2024/02/27 11:01:32;;;;;;;15.35;9.05;;;14.30;74.00;;;;;;2620626;52;21349;-67
2024/02/27 11:04:00;;;;;;;12.40;8.73;;;14.30;73.60;;;;;;2368347;53;21065;-66
2024/02/27 11:06:28;;;;;;;13.80;8.82;;;14.30;73.60;;;;;;2368735;53;20926;-67
2024/02/27 11:09:07;;;;;;;12.30;8.73;;;14.30;73.50;;;;;;2620225;52;20950;-66
2024/02/27 11:12:25;;;;;;;13.85;9.98;;;14.40;72.80;;;;;;2595872;52;21433;-66
2024/02/27 11:14:56;;;;;;;12.23;8.20;;;14.40;72.20;;;;;;2620864;52;20958;-66
2024/02/27 11:17:22;;;;;;;14.00;8.98;;;14.40;73.10;;;;;;2621124;52;20946;-67
2024/02/27 11:19:50;;;;;;;13.62;9.18;;;14.40;73.00;;;;;;2367387;53;20914;-66
2024/02/27 11:22:18;;;;;;;13.88;9.10;;;14.40;72.80;;;;;;2600363;52;21294;-65
2024/02/27 11:24:46;;;;;;;12.82;8.85;;;14.40;72.60;;;;;;2361925;53;20922;-66
2024/02/27 11:27:28;;;;;;;13.30;9.05;;;14.40;72.40;;;;;;2369139;53;20973;-66
2024/02/27 11:29:56;;;;;;;12.63;8.15;;;14.40;72.40;;;;;;2352935;53;21045;-66
2024/02/27 11:32:24;;;;;;;13.30;8.48;;;14.40;72.70;;;;;;2368455;53;21483;-66
2024/02/27 11:34:50;;;;;;;14.00;9.02;;;14.40;72.80;;;;;;2620516;52;21630;-66
2024/02/27 11:37:21;;;;;;;13.55;8.88;;;14.40;72.70;;;;;;2620910;52;21392;-66
2024/02/27 11:39:48;;;;;;;11.75;7.90;;;14.40;73.10;;;;;;2368885;53;20930;-67
2024/02/27 11:42:24;;;;;;;13.60;8.52;;;14.40;72.50;;;;;;2620213;52;21571;-66
2024/02/27 11:45:10;;;;;;;12.35;8.20;;;14.40;71.90;;;;;;2340327;53;21522;-66
2024/02/27 11:48:01;;;;;;;12.93;8.63;;;14.40;71.10;;;;;;2340689;53;20945;-66
2024/02/27 11:50:48;;;;;;;12.37;8.00;;;14.40;71.90;;;;;;2586639;53;21651;-66
2024/02/27 11:53:33;;;;;;;12.23;8.02;;;14.40;71.00;;;;;;2586084;53;20972;-66
2024/02/27 11:56:02;;;;;;;12.63;6.95;;;14.40;71.10;;;;;;2340478;53;20936;-67
2024/02/27 11:58:28;;;;;;;12.20;7.85;;;14.40;72.10;;;;;;2340675;53;20941;-67
2024/02/27 12:00:54;;;;;;;12.10;7.60;;;14.50;72.60;;;;;;2342051;53;20968;-66
2024/02/27 12:03:21;;;;;;;13.82;8.85;;;14.40;72.70;;;;;;2340477;53;20956;-66
2024/02/27 12:05:49;;;;;;;14.20;9.27;;;14.50;72.90;;;;;;2339951;53;20948;-66
2024/02/27 12:08:16;;;;;;;14.13;9.70;;;14.50;72.90;;;;;;2342954;53;20943;-66
2024/02/27 12:10:43;;;;;;;15.52;10.40;;;14.50;73.00;;;;;;2557408;53;21029;-67
2024/02/27 12:13:10;;;;;;;14.60;9.63;;;14.50;72.90;;;;;;2341439;53;21775;-67
2024/02/27 12:15:37;;;;;;;14.48;9.98;;;14.60;72.90;;;;;;2581114;53;20988;-66
2024/02/27 12:18:04;;;;;;;18.10;11.30;;;14.60;73.10;;;;;;2340275;53;20980;-66
2024/02/27 12:20:30;;;;;;;16.77;11.32;;;14.60;72.90;;;;;;2586361;53;20928;-66
2024/02/27 12:22:56;;;;;;;17.25;11.82;;;14.60;72.80;;;;;;2340748;53;21480;-66
2024/02/27 12:25:23;;;;;;;16.75;11.82;;;14.60;72.60;;;;;;2585543;53;21300;-67
2024/02/27 12:27:53;;;;;;;17.10;11.55;;;14.60;72.50;;;;;;2340336;53;21024;-66
2024/02/27 12:30:22;;;;;;;15.48;10.13;;;14.60;72.10;;;;;;2340692;53;21594;-67
2024/02/27 12:32:49;;;;;;;15.88;10.20;;;14.60;72.40;;;;;;2340278;53;20988;-65
2024/02/27 12:35:17;;;;;;;16.23;11.00;;;14.60;72.50;;;;;;2586286;53;21024;-67
2024/02/27 12:37:48;;;;;;;13.90;10.55;;;14.60;72.60;;;;;;2586141;53;21332;-66
2024/02/27 12:40:18;;;;;;;16.00;11.12;;;14.60;72.50;;;;;;2340511;53;21908;-67
2024/02/27 12:42:57;;;;;;;16.37;11.73;;;14.60;72.80;;;;;;2585423;53;20940;-66
2024/02/27 12:45:25;;;;;;;15.13;10.68;;;14.60;72.70;;;;;;2340730;53;21056;-66